Time;durP1;ratioP1;P1;durP2;ratioP2;P2;SDS_P1;SDS_P2;PMS_P1;PMS_P2;Temp;Humidity;BMP_temperature;BMP_pressure;BME280_temperature;BME280_humidity;BME280_pressure;Samples;Min_cycle;Max_cycle;Signal;HPM_P1;HPM_P2
2021/03/29 00:01:16;;;;;;;53.45;28.83;;;;;;;4.60;77.47;100960.71;1785627;80;21259;-78
2021/03/29 00:04:20;;;;;;;52.85;29.15;;;;;;;4.53;77.71;100963.56;1785549;80;21267;-78
2021/03/29 00:07:26;;;;;;;48.60;28.07;;;;;;;4.47;78.02;100954.57;1784746;80;21270;-77
2021/03/29 00:10:32;;;;;;;48.40;29.80;;;;;;;4.41;78.17;100955.03;1783983;80;21263;-78
2021/03/29 00:13:38;;;;;;;55.85;31.02;;;;;;;4.33;78.32;100952.95;1784857;80;21282;-78
2021/03/29 00:16:43;;;;;;;64.82;31.95;;;;;;;4.30;78.62;100951.82;1784003;80;21151;-78
2021/03/29 00:19:50;;;;;;;59.33;30.37;;;;;;;4.31;78.72;100946.77;1784073;80;21815;-78
2021/03/29 00:22:56;;;;;;;47.67;27.07;;;;;;;4.32;78.61;100945.78;1783959;80;21226;-77
2021/03/29 00:26:02;;;;;;;52.83;30.92;;;;;;;4.26;78.49;100940.00;1782407;80;21158;-78
2021/03/29 00:29:09;;;;;;;61.30;31.15;;;;;;;4.13;78.78;100940.08;1784118;80;21207;-77
2021/03/29 00:32:15;;;;;;;59.40;31.62;;;;;;;4.07;79.13;100936.02;1784249;80;21844;-77
2021/03/29 00:35:28;;;;;;;47.80;28.52;;;;;;;4.06;79.21;100932.08;1784272;80;21132;-77
2021/03/29 00:38:35;;;;;;;47.58;28.90;;;;;;;4.06;79.57;100934.30;1782584;80;21186;-78
2021/03/29 00:41:41;;;;;;;54.33;29.90;;;;;;;4.03;79.85;100926.90;1782634;80;21518;-78
2021/03/29 00:44:45;;;;;;;51.50;29.20;;;;;;;4.01;80.03;100923.46;1783991;80;21320;-78
2021/03/29 00:47:52;;;;;;;50.40;29.15;;;;;;;3.97;80.32;100926.03;1782522;80;21204;-78
2021/03/29 00:51:19;;;;;;;50.92;27.90;;;;;;;3.90;80.52;100924.27;1782562;80;21160;-77
2021/03/29 00:54:27;;;;;;;51.88;28.83;;;;;;;3.81;80.83;100923.16;1784249;80;21144;-78
2021/03/29 00:57:32;;;;;;;52.03;29.60;;;;;;;3.80;81.34;100934.08;1784262;80;21309;-78
2021/03/29 01:00:50;;;;;;;54.80;29.25;;;;;;;3.79;81.26;100933.22;1784302;80;21762;-78
2021/03/29 01:04:03;;;;;;;52.53;31.85;;;;;;;3.74;81.17;100928.66;1784140;80;21805;-78
2021/03/29 01:07:03;;;;;;;61.83;30.17;;;;;;;3.74;81.44;100928.66;1784137;80;21203;-78
2021/03/29 01:10:09;;;;;;;58.78;31.62;;;;;;;3.81;81.58;100932.64;1784141;80;21187;-77
2021/03/29 01:13:18;;;;;;;111.77;49.93;;;;;;;3.83;81.52;100934.72;1784214;80;21204;-77
2021/03/29 01:16:26;;;;;;;57.90;30.17;;;;;;;3.88;81.45;100934.86;1784242;80;21132;-78
2021/03/29 01:19:46;;;;;;;48.52;29.70;;;;;;;3.88;81.11;100934.86;1784148;80;21164;-78
2021/03/29 01:22:58;;;;;;;45.98;28.73;;;;;;;3.84;81.02;100935.08;1784155;80;21765;-78
2021/03/29 01:26:25;;;;;;;49.95;28.65;;;;;;;3.89;81.16;100936.58;1783299;80;21164;-78
2021/03/29 01:29:31;;;;;;;56.20;31.12;;;;;;;3.92;81.06;100937.21;1783402;80;21290;-78
2021/03/29 01:32:37;;;;;;;64.85;34.95;;;;;;;3.94;81.03;100942.50;1784146;80;21295;-78
2021/03/29 01:36:04;;;;;;;66.00;32.55;;;;;;;3.97;81.08;100936.86;1784373;80;21283;-78
2021/03/29 01:39:10;;;;;;;49.90;29.57;;;;;;;3.95;81.11;100938.80;1784207;80;21152;-77
2021/03/29 01:42:17;;;;;;;60.38;33.65;;;;;;;3.94;81.13;100931.17;1784089;80;21294;-77
2021/03/29 01:45:22;;;;;;;59.05;32.00;;;;;;;3.86;80.84;100930.93;1784008;80;21160;-78
2021/03/29 01:48:28;;;;;;;64.20;35.00;;;;;;;3.79;81.29;100922.40;1784138;80;21294;-78
2021/03/29 01:51:33;;;;;;;61.35;35.73;;;;;;;3.79;81.53;100927.81;1784259;80;21262;-78
2021/03/29 01:54:40;;;;;;;79.53;38.38;;;;;;;3.79;81.58;100927.81;1784226;80;21269;-78
2021/03/29 01:57:46;;;;;;;73.10;38.38;;;;;;;3.79;81.49;100917.48;1784195;80;21334;-78
2021/03/29 02:00:56;;;;;;;65.83;38.02;;;;;;;3.80;81.55;100919.20;1784128;80;21334;-78
2021/03/29 02:04:01;;;;;;;78.42;41.20;;;;;;;3.79;81.62;100921.05;1784164;80;21176;-78
2021/03/29 02:07:08;;;;;;;75.28;42.93;;;;;;;3.76;81.56;100914.50;1784083;80;21184;-78
2021/03/29 02:10:21;;;;;;;85.72;41.37;;;;;;;3.75;81.72;100923.61;1784158;80;21306;-78
2021/03/29 02:13:28;;;;;;;82.25;42.20;;;;;;;3.74;81.85;100916.97;1784291;80;21615;-77
2021/03/29 02:16:34;;;;;;;85.45;43.15;;;;;;;3.74;81.77;100915.13;1761181;80;21789;-78
2021/03/29 02:19:39;;;;;;;87.00;46.18;;;;;;;3.71;81.67;100913.14;1760245;80;21286;-78
2021/03/29 02:22:44;;;;;;;89.30;44.67;;;;;;;3.66;81.55;100914.84;1784163;80;21832;-78
2021/03/29 02:25:50;;;;;;;108.95;51.48;;;;;;;3.60;81.50;100904.50;1782645;80;21684;-77
2021/03/29 02:28:57;;;;;;;108.17;49.13;;;;;;;3.54;81.50;100915.80;1785533;80;21295;-78
2021/03/29 02:32:04;;;;;;;110.28;50.03;;;;;;;3.48;81.71;100918.48;1785495;80;21196;-78
2021/03/29 02:35:11;;;;;;;99.00;48.40;;;;;;;3.44;81.88;100916.13;1785479;80;21809;-78
2021/03/29 02:38:21;;;;;;;108.15;48.30;;;;;;;3.37;81.97;100921.11;1785573;80;21223;-78
2021/03/29 02:41:36;;;;;;;96.80;47.20;;;;;;;3.35;82.10;100926.28;1785740;80;21140;-78
2021/03/29 02:44:42;;;;;;;96.30;44.10;;;;;;;3.31;82.11;100915.69;1785455;80;21128;-78
2021/03/29 02:47:51;;;;;;;77.10;40.98;;;;;;;3.29;82.04;100915.41;1785537;80;21306;-78
2021/03/29 02:50:58;;;;;;;79.82;39.15;;;;;;;3.25;82.02;100916.64;1785642;80;21584;-78
2021/03/29 02:54:13;;;;;;;75.95;38.83;;;;;;;3.21;82.13;100920.06;1785571;80;21148;-78
2021/03/29 02:57:17;;;;;;;67.15;37.25;;;;;;;3.19;82.26;100923.34;1785511;80;21246;-78
2021/03/29 03:00:30;;;;;;;75.03;37.17;;;;;;;3.21;82.37;100921.91;1785401;80;21295;-77
2021/03/29 03:03:35;;;;;;;59.83;31.12;;;;;;;3.20;82.30;100920.15;1785548;80;21211;-77
2021/03/29 03:06:40;;;;;;;77.40;36.48;;;;;;;3.15;82.40;100915.09;1785530;80;21706;-78
2021/03/29 03:09:47;;;;;;;65.80;36.63;;;;;;;3.10;82.49;100912.36;1785529;80;21279;-77
2021/03/29 03:12:53;;;;;;;58.73;32.93;;;;;;;3.06;82.64;100915.80;1785491;80;21310;-80
2021/03/29 03:15:59;;;;;;;53.73;30.43;;;;;;;3.06;82.80;100913.09;1785465;80;21275;-80
2021/03/29 03:19:04;;;;;;;64.85;43.40;;;;;;;3.05;82.83;100918.96;1785504;80;21196;-79
2021/03/29 03:22:10;;;;;;;82.70;62.20;;;;;;;2.99;82.87;100918.07;1785557;80;21282;-79
2021/03/29 03:25:34;;;;;;;69.03;43.15;;;;;;;2.95;82.97;100922.46;1765429;80;21306;-80
2021/03/29 03:28:39;;;;;;;79.97;55.25;;;;;;;2.89;83.08;100920.22;1785142;79;21274;-80
2021/03/29 03:31:45;;;;;;;65.12;39.40;;;;;;;2.79;83.34;100917.33;1785446;80;21326;-80
2021/03/29 03:34:50;;;;;;;59.53;40.15;;;;;;;2.78;83.60;100921.87;1785576;80;21627;-78
2021/03/29 03:38:02;;;;;;;56.45;39.33;;;;;;;2.75;83.81;100920.73;1785495;80;21171;-77
2021/03/29 03:41:19;;;;;;;55.48;33.20;;;;;;;2.76;83.95;100930.55;1785599;80;21255;-78
2021/03/29 03:44:25;;;;;;;50.30;33.45;;;;;;;2.76;84.00;100926.50;1785638;80;21212;-77
2021/03/29 03:47:30;;;;;;;52.15;35.63;;;;;;;2.86;84.05;100933.94;1765368;80;21282;-77
2021/03/29 03:50:36;;;;;;;53.70;31.62;;;;;;;2.89;83.88;100935.08;1785602;80;21179;-78
2021/03/29 03:53:43;;;;;;;54.13;42.23;;;;;;;2.87;83.87;100927.09;1785600;80;21833;-78
2021/03/29 03:56:49;;;;;;;47.23;36.17;;;;;;;2.90;83.98;100931.40;1785573;80;21243;-78
2021/03/29 03:59:54;;;;;;;51.35;35.78;;;;;;;2.93;83.95;100929.34;1785629;80;21183;-78
2021/03/29 04:03:02;;;;;;;53.85;37.63;;;;;;;2.93;83.91;100926.64;1785355;80;21694;-78
2021/03/29 04:06:07;;;;;;;36.55;24.00;;;;;;;2.94;83.98;100931.06;1785701;80;21191;-77
2021/03/29 04:09:15;;;;;;;40.23;23.85;;;;;;;2.96;83.99;100924.18;1783897;80;21765;-78
2021/03/29 04:12:19;;;;;;;38.98;24.23;;;;;;;2.99;84.00;100922.62;1785551;80;21191;-78
2021/03/29 04:15:25;;;;;;;31.60;21.77;;;;;;;3.06;83.99;100922.55;1783930;80;21812;-78
2021/03/29 04:18:33;;;;;;;34.98;22.87;;;;;;;3.11;83.99;100924.42;1785568;80;21302;-78
2021/03/29 04:21:41;;;;;;;38.28;22.62;;;;;;;3.19;84.09;100922.00;1784104;80;21132;-78
2021/03/29 04:24:47;;;;;;;33.75;21.40;;;;;;;3.31;84.10;100933.27;1785690;80;21805;-78
2021/03/29 04:27:53;;;;;;;38.33;19.92;;;;;;;3.35;83.85;100931.69;1786107;79;21219;-78
2021/03/29 04:30:58;;;;;;;34.63;20.62;;;;;;;3.39;83.82;100932.70;1767673;80;21192;-78
2021/03/29 04:34:04;;;;;;;32.65;21.70;;;;;;;3.45;83.77;100932.72;1760600;81;21161;-78
2021/03/29 04:37:09;;;;;;;31.50;20.57;;;;;;;3.50;83.57;100939.50;1747187;81;21778;-78
2021/03/29 04:40:17;;;;;;;37.45;22.67;;;;;;;3.50;83.61;100944.91;1777588;79;21289;-78
2021/03/29 04:43:22;;;;;;;35.35;23.00;;;;;;;3.54;83.92;100946.41;1783467;77;21189;-78
2021/03/29 04:46:27;;;;;;;37.00;20.75;;;;;;;3.63;84.13;100954.33;1787369;80;21263;-78
2021/03/29 04:49:34;;;;;;;36.40;21.35;;;;;;;3.71;84.18;100958.64;1752963;82;21262;-78
2021/03/29 04:52:40;;;;;;;28.27;19.07;;;;;;;3.80;84.17;100966.06;1752951;80;21227;-78
2021/03/29 04:55:45;;;;;;;33.18;19.95;;;;;;;3.93;84.01;100963.29;1784532;80;21268;-78
2021/03/29 04:58:51;;;;;;;29.63;19.40;;;;;;;4.05;83.75;100956.09;1748851;82;21270;-78
2021/03/29 05:01:57;;;;;;;46.60;37.17;;;;;;;4.13;83.70;100954.97;1767613;81;21833;-78
2021/03/29 05:05:03;;;;;;;34.70;21.60;;;;;;;4.25;83.54;100962.16;1756171;81;21901;-78
2021/03/29 05:08:08;;;;;;;41.92;22.67;;;;;;;4.31;83.34;100960.31;1771505;80;21263;-79
2021/03/29 05:11:13;;;;;;;41.30;31.07;;;;;;;4.44;83.49;100969.70;1773091;80;21306;-79
2021/03/29 05:14:19;;;;;;;33.80;23.07;;;;;;;4.63;83.25;100977.23;1781451;80;21176;-79
2021/03/29 05:17:25;;;;;;;34.75;27.02;;;;;;;4.74;82.77;100973.66;1784307;77;21177;-79
2021/03/29 05:20:32;;;;;;;32.38;21.57;;;;;;;4.79;82.05;100973.66;1768607;80;21849;-78
2021/03/29 05:23:38;;;;;;;33.73;21.12;;;;;;;4.77;82.08;100970.22;1779945;80;21837;-79
2021/03/29 05:26:43;;;;;;;26.70;18.62;;;;;;;4.82;82.26;100959.87;1771414;80;21786;-79
2021/03/29 05:29:49;;;;;;;30.82;19.17;;;;;;;4.90;82.72;100951.63;1779339;80;22140;-79
2021/03/29 05:32:54;;;;;;;30.57;21.15;;;;;;;5.02;82.43;100954.67;1781123;80;21144;-79
2021/03/29 05:35:59;;;;;;;32.13;20.02;;;;;;;5.08;81.72;100950.09;1780567;80;21263;-79
2021/03/29 05:39:04;;;;;;;32.38;21.55;;;;;;;5.14;81.56;100956.40;1781916;80;21141;-79
2021/03/29 05:42:09;;;;;;;42.67;29.37;;;;;;;5.25;81.59;100971.28;1783209;80;21243;-79
2021/03/29 05:45:16;;;;;;;33.83;24.18;;;;;;;5.35;81.45;100977.67;1766032;80;21246;-79
2021/03/29 05:48:23;;;;;;;31.97;22.22;;;;;;;5.44;80.84;100987.41;1782343;80;21285;-79
2021/03/29 05:51:28;;;;;;;34.00;20.02;;;;;;;5.40;80.10;100990.86;1838592;77;21279;-79
2021/03/29 05:54:34;;;;;;;35.52;22.60;;;;;;;5.34;79.96;100985.95;1842588;77;21790;-80
2021/03/29 05:58:05;;;;;;;37.10;21.02;;;;;;;5.31;79.95;100975.34;1834630;77;21266;-78
2021/03/29 06:00:50;;;;;;;30.85;18.87;;;;;;;5.34;79.92;100977.31;1838052;77;21209;-79
2021/03/29 06:03:55;;;;;;;28.55;17.92;;;;;;;5.47;80.31;100974.95;1837131;77;21767;-79
2021/03/29 06:07:00;;;;;;;34.05;18.55;;;;;;;5.61;80.40;100970.59;1836676;77;21309;-79
2021/03/29 06:10:15;;;;;;;28.40;19.35;;;;;;;5.83;80.04;100977.77;1831977;77;21812;-80
2021/03/29 06:13:29;;;;;;;29.05;18.15;;;;;;;6.03;79.51;100980.21;1829405;77;21264;-81
2021/03/29 06:16:37;;;;;;;32.15;18.67;;;;;;;6.16;79.06;100980.86;1836812;77;21241;-80
2021/03/29 06:20:19;;;;;;;33.83;19.87;;;;;;;6.25;79.15;100971.06;1835440;77;21281;-78
2021/03/29 06:23:16;;;;;;;32.93;20.37;;;;;;;6.38;78.78;100981.23;1837105;77;21269;-80
2021/03/29 06:26:37;;;;;;;29.23;19.27;;;;;;;6.54;78.49;100984.83;1833085;77;21295;-79
2021/03/29 06:29:41;;;;;;;;;;;;;;;6.62;78.38;100991.83;1835866;77;21868;-79
2021/03/29 06:32:45;;;;;;;32.63;18.65;;;;;;;6.60;77.33;100997.41;1834569;77;20206;-78
2021/03/29 06:35:55;;;;;;;42.95;22.73;;;;;;;6.52;77.34;100993.63;1833300;77;21139;-78
2021/03/29 06:39:00;;;;;;;36.95;22.20;;;;;;;6.46;77.99;101000.97;1833076;77;21124;-78
2021/03/29 06:42:06;;;;;;;34.83;23.07;;;;;;;6.40;78.26;101001.00;1833389;77;21246;-79
2021/03/29 06:45:23;;;;;;;39.15;22.17;;;;;;;6.41;78.28;101006.80;1838253;77;21130;-81
2021/03/29 06:48:36;;;;;;;40.70;23.45;;;;;;;6.46;78.19;101003.19;1839369;77;21145;-80
2021/03/29 06:51:42;;;;;;;32.83;21.52;;;;;;;6.53;78.23;101009.80;1830856;77;21338;-78
2021/03/29 06:54:49;;;;;;;37.58;20.25;;;;;;;6.61;78.65;101013.22;1830188;77;21109;-79
2021/03/29 06:57:54;;;;;;;43.20;24.35;;;;;;;6.71;77.92;101015.99;1830487;77;21284;-80
2021/03/29 07:01:04;;;;;;;27.87;17.95;;;;;;;6.75;77.43;101015.59;1828889;77;21132;-79
2021/03/29 07:04:11;;;;;;;33.65;20.05;;;;;;;6.73;77.27;101021.67;1832562;77;21253;-80
2021/03/29 07:07:18;;;;;;;34.95;20.95;;;;;;;6.75;77.06;101016.95;1835836;77;21140;-79
2021/03/29 07:10:25;;;;;;;30.60;19.73;;;;;;;6.81;76.93;101017.76;1837799;77;21281;-79
2021/03/29 07:13:31;;;;;;;29.10;19.05;;;;;;;6.78;77.01;101015.83;1823481;77;21679;-79
2021/03/29 07:16:39;;;;;;;30.20;20.00;;;;;;;6.80;77.48;101020.13;1832555;77;21198;-80
2021/03/29 07:19:44;;;;;;;30.88;20.27;;;;;;;6.88;76.79;101027.62;1835419;77;21306;-79
2021/03/29 07:22:50;;;;;;;29.55;18.77;;;;;;;6.97;76.51;101036.83;1833938;77;21152;-78
2021/03/29 07:25:55;;;;;;;33.15;20.20;;;;;;;7.07;76.29;101033.66;1836367;77;21310;-78
2021/03/29 07:29:00;;;;;;;31.48;20.20;;;;;;;7.17;76.27;101033.19;1835309;77;21799;-78
2021/03/29 07:32:08;;;;;;;33.90;20.82;;;;;;;7.29;76.30;101033.47;1836941;76;21212;-78
2021/03/29 07:35:15;;;;;;;43.95;23.80;;;;;;;7.40;76.01;101034.71;1829967;77;21277;-78
2021/03/29 07:38:21;;;;;;;39.10;22.07;;;;;;;7.46;75.07;101029.71;1777742;78;21218;-78
2021/03/29 07:41:27;;;;;;;33.58;21.45;;;;;;;7.50;75.53;101032.02;1753282;80;21271;-78
2021/03/29 07:44:33;;;;;;;37.23;21.52;;;;;;;7.54;75.52;101031.25;1768187;80;21956;-79
2021/03/29 07:48:01;;;;;;;41.10;23.80;;;;;;;7.58;75.44;101036.78;1772680;80;21853;-78
2021/03/29 07:51:07;;;;;;;41.05;23.22;;;;;;;7.64;75.29;101034.85;1773840;80;21310;-78
2021/03/29 07:54:13;;;;;;;34.63;22.00;;;;;;;7.72;75.34;101032.80;1773768;80;21817;-78
2021/03/29 07:57:18;;;;;;;47.48;21.75;;;;;;;7.83;75.66;101038.97;1765885;80;21888;-79
2021/03/29 08:00:37;;;;;;;37.05;22.73;;;;;;;7.93;74.70;101041.70;1774663;80;21149;-79
2021/03/29 08:03:43;;;;;;;32.67;20.30;;;;;;;7.97;74.59;101042.29;1773977;80;21231;-80
2021/03/29 08:06:52;;;;;;;36.60;22.82;;;;;;;7.91;74.96;101040.50;1771535;80;21685;-79
2021/03/29 08:09:57;;;;;;;43.68;24.00;;;;;;;7.92;74.80;101046.80;1773809;80;21310;-79
2021/03/29 08:13:07;;;;;;;42.38;23.42;;;;;;;7.90;74.83;101034.69;1771221;80;21287;-80
2021/03/29 08:16:15;;;;;;;;;;;;;;;7.89;75.15;101044.34;1775828;79;21133;-79
2021/03/29 08:19:29;;;;;;;41.40;24.55;;;;;;;7.91;75.20;101041.00;1770647;80;20567;-80
2021/03/29 08:22:34;;;;;;;45.08;24.05;;;;;;;7.94;75.69;101047.00;1772906;80;21266;-80
2021/03/29 08:25:40;;;;;;;32.20;20.95;;;;;;;8.05;75.99;101046.54;1770331;80;21153;-79
2021/03/29 08:29:18;;;;;;;34.48;21.55;;;;;;;8.16;75.21;101046.39;1771532;80;21263;-79
2021/03/29 08:32:39;;;;;;;31.73;20.70;;;;;;;8.23;74.52;101042.07;1765096;80;21319;-79
2021/03/29 08:35:44;;;;;;;35.43;20.35;;;;;;;8.37;73.67;101047.13;1763131;80;21848;-79
2021/03/29 08:38:49;;;;;;;26.57;19.67;;;;;;;8.48;73.40;101030.28;1797448;78;21848;-79
2021/03/29 08:41:59;;;;;;;33.55;20.65;;;;;;;8.61;73.17;101038.52;1792012;78;21330;-79
2021/03/29 08:45:04;;;;;;;30.08;19.15;;;;;;;8.62;72.79;101039.38;1772391;80;21746;-79
2021/03/29 08:48:13;;;;;;;27.67;19.12;;;;;;;8.65;72.58;101032.24;1792632;79;21277;-80
2021/03/29 08:51:30;;;;;;;34.38;20.35;;;;;;;8.66;72.38;101032.63;1797574;78;21292;-78
2021/03/29 08:54:35;;;;;;;32.50;21.17;;;;;;;8.73;72.34;101031.52;1800032;78;21203;-80
2021/03/29 08:57:40;;;;;;;38.88;20.50;;;;;;;8.84;73.02;101034.92;1771181;80;21168;-78
2021/03/29 09:00:47;;;;;;;43.65;20.55;;;;;;;8.98;72.01;101036.32;1762121;80;21596;-77
2021/03/29 09:03:52;;;;;;;31.23;19.12;;;;;;;9.05;71.48;101037.97;1791519;78;21329;-80
2021/03/29 09:07:05;;;;;;;33.58;19.17;;;;;;;9.10;71.74;101047.94;1794556;78;21247;-79
2021/03/29 09:10:12;;;;;;;34.08;19.77;;;;;;;9.14;71.09;101032.98;1765131;80;21160;-78
2021/03/29 09:13:21;;;;;;;32.85;20.50;;;;;;;9.16;70.76;101041.87;1793061;79;21258;-79
2021/03/29 09:16:31;;;;;;;27.27;18.98;;;;;;;9.15;70.20;101033.34;1791977;78;21132;-79
2021/03/29 09:19:38;;;;;;;29.75;18.17;;;;;;;9.19;71.04;101034.25;1798541;78;21761;-79
2021/03/29 09:22:44;;;;;;;25.85;17.70;;;;;;;9.31;70.79;101044.45;1760449;78;21666;-79
2021/03/29 09:25:52;;;;;;;27.10;17.77;;;;;;;9.48;70.90;101040.08;1773231;80;21243;-79
2021/03/29 09:28:57;;;;;;;30.60;18.85;;;;;;;9.62;68.63;101048.27;1765006;80;21290;-80
2021/03/29 09:32:04;;;;;;;27.27;17.92;;;;;;;9.67;68.99;101049.53;1791269;79;21723;-80
2021/03/29 09:35:10;;;;;;;27.70;18.80;;;;;;;9.63;68.48;101057.67;1743673;80;21293;-81
2021/03/29 09:38:15;;;;;;;28.38;17.98;;;;;;;9.50;68.56;101054.43;1773523;79;21690;-81
2021/03/29 09:41:32;;;;;;;25.05;17.37;;;;;;;9.43;69.15;101056.06;1771508;79;21212;-80
2021/03/29 09:44:35;;;;;;;25.23;18.15;;;;;;;9.36;69.71;101054.45;1769463;80;21216;-80
2021/03/29 09:47:41;;;;;;;27.55;17.65;;;;;;;9.34;69.50;101053.73;1739972;79;21287;-80
2021/03/29 09:50:51;;;;;;;33.30;18.82;;;;;;;9.36;69.65;101045.38;1773588;80;21177;-78
2021/03/29 09:53:58;;;;;;;30.05;18.52;;;;;;;9.42;69.81;101042.92;1763886;80;21653;-79
2021/03/29 09:57:05;;;;;;;29.35;18.85;;;;;;;9.47;68.69;101053.39;1774717;79;21314;-79
2021/03/29 10:00:27;;;;;;;25.92;18.60;;;;;;;9.55;68.96;101063.06;1763597;80;21154;-78
2021/03/29 10:03:32;;;;;;;29.32;19.62;;;;;;;9.59;69.43;101065.81;1762480;80;21581;-79
2021/03/29 10:06:39;;;;;;;30.30;18.65;;;;;;;9.67;69.82;101060.97;1769053;80;21250;-79
2021/03/29 10:09:47;;;;;;;31.73;20.50;;;;;;;9.71;67.87;101076.91;1764646;80;21279;-79
2021/03/29 10:12:53;;;;;;;28.80;19.55;;;;;;;9.69;67.95;101073.95;1773991;80;21896;-79
2021/03/29 10:15:59;;;;;;;32.35;20.45;;;;;;;9.64;67.87;101074.41;1758425;80;21303;-79
2021/03/29 10:19:15;;;;;;;38.58;22.80;;;;;;;9.63;68.91;101076.80;1774285;79;21808;-79
2021/03/29 10:22:23;;;;;;;42.05;23.38;;;;;;;9.68;68.47;101070.87;1762214;80;21314;-79
2021/03/29 10:25:28;;;;;;;53.65;28.07;;;;;;;9.65;68.27;101069.33;1772297;80;21303;-79
2021/03/29 10:28:33;;;;;;;51.73;24.70;;;;;;;9.62;68.26;101067.40;1775704;80;21306;-79
2021/03/29 10:31:41;;;;;;;51.40;25.68;;;;;;;9.55;67.34;101065.79;1775870;80;21267;-78
2021/03/29 10:34:48;;;;;;;45.35;24.77;;;;;;;9.51;67.37;101058.05;1780257;80;23118;-78
2021/03/29 10:37:53;;;;;;;50.55;24.60;;;;;;;9.46;67.53;101060.72;1790598;78;21150;-78
2021/03/29 10:40:58;;;;;;;44.30;23.05;;;;;;;9.47;68.06;101054.75;1789973;80;21270;-79
2021/03/29 10:44:04;;;;;;;44.90;24.15;;;;;;;9.53;68.51;101058.23;1790458;80;21789;-79
2021/03/29 10:47:08;;;;;;;39.58;20.90;;;;;;;9.62;67.00;101069.62;1795795;79;21652;-80
2021/03/29 10:50:16;;;;;;;36.42;20.52;;;;;;;9.69;66.93;101064.39;1792755;79;21235;-79
2021/03/29 10:53:21;;;;;;;40.12;21.55;;;;;;;9.75;66.76;101058.34;1794604;79;21626;-79
2021/03/29 10:56:26;;;;;;;34.85;20.85;;;;;;;9.82;66.07;101058.06;1792034;79;21271;-79
2021/03/29 10:59:33;;;;;;;32.60;17.82;;;;;;;9.90;66.87;101054.07;1792482;80;21282;-79
2021/03/29 11:02:38;;;;;;;34.58;19.62;;;;;;;10.02;66.11;101053.36;1762641;81;21192;-79
2021/03/29 11:05:43;;;;;;;27.20;18.15;;;;;;;10.17;66.12;101059.14;1760542;81;21781;-80
2021/03/29 11:08:49;;;;;;;25.80;17.87;;;;;;;10.27;65.22;101055.00;1762964;81;21179;-80
2021/03/29 11:11:54;;;;;;;36.68;19.92;;;;;;;10.36;63.90;101056.28;1787826;79;21259;-80
2021/03/29 11:15:00;;;;;;;28.20;17.00;;;;;;;10.42;63.54;101046.59;1772257;80;21184;-80
2021/03/29 11:18:07;;;;;;;29.12;18.50;;;;;;;10.48;62.38;101056.38;1772904;80;21639;-79
2021/03/29 11:21:14;;;;;;;31.97;18.90;;;;;;;10.53;62.89;101055.05;1777545;80;21251;-80
2021/03/29 11:24:21;;;;;;;31.07;19.65;;;;;;;10.62;63.15;101056.84;1780410;80;21861;-80
2021/03/29 11:27:25;;;;;;;33.90;18.73;;;;;;;10.68;61.79;101058.92;1764422;80;21342;-80
2021/03/29 11:30:31;;;;;;;37.58;20.65;;;;;;;10.64;61.03;101055.67;1776425;80;21258;-80
2021/03/29 11:33:37;;;;;;;34.18;18.25;;;;;;;10.60;61.47;101067.09;1777165;80;21223;-80
2021/03/29 11:36:41;;;;;;;35.08;18.48;;;;;;;10.61;61.85;101063.33;1775035;79;21303;-79
2021/03/29 11:39:48;;;;;;;33.33;18.80;;;;;;;10.66;62.06;101058.23;1774079;80;21161;-80
2021/03/29 11:42:54;;;;;;;39.60;21.23;;;;;;;10.64;61.15;101066.61;1767516;80;21271;-80
2021/03/29 11:46:00;;;;;;;41.35;20.25;;;;;;;10.59;60.96;101065.38;1771091;80;21250;-80
2021/03/29 11:49:07;;;;;;;50.23;22.58;;;;;;;10.56;61.40;101062.95;1767327;80;21303;-79
2021/03/29 11:52:12;;;;;;;47.70;25.45;;;;;;;10.61;61.75;101060.59;1771154;80;21314;-80
2021/03/29 11:55:20;;;;;;;47.70;23.73;;;;;;;10.70;61.48;101056.91;1780453;80;21822;-80
2021/03/29 11:58:27;;;;;;;49.48;26.02;;;;;;;10.78;60.58;101052.88;1770340;80;21908;-80
2021/03/29 12:01:46;;;;;;;52.62;27.42;;;;;;;10.83;60.85;101053.77;1777444;80;21294;-80
2021/03/29 12:05:29;;;;;;;48.10;23.95;;;;;;;10.94;60.15;101056.23;1776871;80;21298;-80
2021/03/29 12:08:23;;;;;;;60.75;26.75;;;;;;;11.05;58.77;101057.31;1776712;80;21849;-79
2021/03/29 12:14:47;;;;;;;55.63;27.05;;;;;;;11.05;59.16;101064.67;1768600;80;21193;-79
2021/03/29 12:17:53;;;;;;;59.10;27.95;;;;;;;11.06;58.43;101056.84;1771814;80;21220;-80
2021/03/29 12:20:59;;;;;;;54.27;27.05;;;;;;;11.06;58.53;101070.52;1762371;80;21650;-80
2021/03/29 12:24:07;;;;;;;46.45;25.77;;;;;;;11.08;58.13;101064.36;1767269;80;21611;-80
2021/03/29 12:27:11;;;;;;;28.42;17.02;;;;;;;11.11;59.35;101065.42;1768482;80;21311;-80
2021/03/29 12:30:19;;;;;;;31.45;16.67;;;;;;;11.20;61.90;101069.41;1762281;80;21156;-80
2021/03/29 12:33:24;;;;;;;23.18;14.70;;;;;;;11.22;61.56;101067.87;1759831;80;21223;-79
2021/03/29 12:36:34;;;;;;;19.48;13.30;;;;;;;11.19;61.17;101076.40;1754105;80;21690;-79
2021/03/29 12:40:28;;;;;;;28.50;14.40;;;;;;;11.09;61.00;101072.91;1752779;80;21338;-80
2021/03/29 12:43:04;;;;;;;21.77;12.85;;;;;;;10.99;60.95;101083.97;1748499;80;21821;-80
2021/03/29 12:45:58;;;;;;;24.23;13.93;;;;;;;10.92;61.16;101086.51;1757988;80;21861;-80
2021/03/29 12:49:08;;;;;;;19.12;11.30;;;;;;;10.87;61.82;101094.82;1762458;80;21188;-79
2021/03/29 12:52:16;;;;;;;17.30;12.15;;;;;;;10.82;62.08;101089.85;1760888;81;21443;-80
2021/03/29 12:55:29;;;;;;;28.50;13.30;;;;;;;10.75;61.52;101089.61;1761218;81;21377;-80
2021/03/29 12:58:35;;;;;;;18.82;10.98;;;;;;;10.61;61.32;101093.42;1777214;80;21156;-79
2021/03/29 13:01:42;;;;;;;16.25;11.15;;;;;;;10.44;61.73;101102.86;1777308;80;21746;-80
2021/03/29 13:04:50;;;;;;;18.23;12.78;;;;;;;10.27;63.05;101096.87;1777536;80;21542;-79
2021/03/29 13:08:07;;;;;;;20.40;12.80;;;;;;;10.15;64.33;101106.27;1781930;80;21278;-80
2021/03/29 13:11:26;;;;;;;23.65;12.80;;;;;;;10.08;65.17;101107.40;1780640;80;21128;-79
2021/03/29 13:14:20;;;;;;;18.65;11.85;;;;;;;10.02;65.43;101112.59;1779634;80;21132;-79
2021/03/29 13:17:26;;;;;;;16.80;10.80;;;;;;;10.02;66.20;101113.48;1769684;80;21707;-79
2021/03/29 13:20:32;;;;;;;18.70;11.85;;;;;;;9.97;66.27;101113.95;1768747;80;21271;-78
2021/03/29 13:23:40;;;;;;;23.12;11.78;;;;;;;9.94;66.25;101118.34;1773120;80;21267;-79
2021/03/29 13:26:46;;;;;;;19.07;11.25;;;;;;;9.86;66.93;101118.74;1743538;80;21278;-79
2021/03/29 13:29:53;;;;;;;19.37;12.07;;;;;;;9.79;67.05;101118.50;1744845;82;21290;-79
2021/03/29 13:33:03;;;;;;;18.35;11.18;;;;;;;9.69;67.12;101109.47;1732425;81;21325;-79
2021/03/29 13:36:08;;;;;;;17.27;11.90;;;;;;;9.54;67.00;101096.82;1730784;83;21285;-79
2021/03/29 13:39:15;;;;;;;17.48;11.90;;;;;;;9.37;67.85;101101.22;1747926;81;21204;-79
2021/03/29 13:42:20;;;;;;;21.50;10.68;;;;;;;9.20;68.33;101104.71;1790352;80;21285;-79
2021/03/29 13:45:25;;;;;;;15.50;11.10;;;;;;;9.08;69.26;101112.70;1791142;80;21292;-79
2021/03/29 13:48:30;;;;;;;17.62;11.75;;;;;;;9.06;69.72;101114.23;1756388;81;21188;-79
2021/03/29 13:51:35;;;;;;;17.40;11.45;;;;;;;9.06;69.42;101116.95;1746331;82;21267;-79
2021/03/29 13:54:41;;;;;;;18.50;12.35;;;;;;;9.09;69.75;101122.13;1746467;82;21272;-79
2021/03/29 13:57:46;;;;;;;24.72;12.00;;;;;;;9.14;69.94;101120.33;1746315;82;21715;-79
2021/03/29 14:00:52;;;;;;;14.30;10.68;;;;;;;9.17;69.45;101124.99;1746451;82;21261;-79
2021/03/29 14:03:57;;;;;;;13.75;9.53;;;;;;;9.17;68.80;101127.72;1759258;81;21840;-79
2021/03/29 14:07:03;;;;;;;18.48;10.53;;;;;;;9.14;68.82;101118.45;1784772;80;21228;-79
2021/03/29 14:10:08;;;;;;;17.60;11.05;;;;;;;9.10;68.67;101120.26;1759685;81;21171;-79
2021/03/29 14:13:15;;;;;;;16.93;11.38;;;;;;;9.04;68.45;101131.77;1772719;81;21366;-79
2021/03/29 14:16:20;;;;;;;18.85;11.40;;;;;;;9.02;68.92;101140.59;1759483;81;21824;-79
2021/03/29 14:19:25;;;;;;;16.40;11.12;;;;;;;9.04;69.48;101150.37;1791773;80;21322;-79
2021/03/29 14:22:33;;;;;;;19.87;11.25;;;;;;;9.05;69.08;101149.86;1759911;81;21353;-79
2021/03/29 14:25:38;;;;;;;20.50;11.12;;;;;;;9.01;68.39;101153.88;1793182;80;21820;-79